Daley Dijks

Chefscout - Cambuur
3 Dez 2028
Sonntag
Verarbeitung

Persönlichkeit

Anpassungsfähigkeit (17) Ehrgeiz (8) Kontroverse (8) Loyalität (13) Druck (5) Professionalität (2) Fairness (12) Temperament (14)

Profil

Trainerstil Demokratisch
Lizenz Kontinentale B
Entschlossenheit 4
Menschenführung 8
Motivation 9
Disziplin 5
Arbeitszufriedenheit
100%
Ermüdung
0%
Rolle Chefscout
Gehalt 32.9K p/W
Vertrag 14.03.2030

Leistung

Verhalten Gut
Trainingseffektivität
21%
Spielerentwicklung
35%
Verletzungsprävention
55%
Taktische Umsetzung
20%

Letzte Ereignisse

Nahm an einer Scouting-Besprechung teil jetzt
Empfahl ein Transferziel jetzt
Empfahl ein Transferziel jetzt
Nahm an einer Scouting-Besprechung teil 7T her
Empfahl ein Transferziel 7T her
Empfahl ein Transferziel 7T her
Empfahl ein Transferziel 7T her
Empfahl ein Transferziel 7T her

Aktuell beobachtet

64
Spieler Verein Status Fähigkeit Vertrauen Beobachtet Zuletzt beobachtet Letzte Stimme
Isaac Partey Sol de America Aktiv 108 / 109 66% 1 01.01.2028 -
Samuel Asamoah Racing Aktiv 104 / 110 66% 1 01.06.2027 Befürworten
Liel Abada Inter Miami CF Aktiv 131 / 132 62% 1 01.06.2027 -
Max Svensson Corinthians Aktiv 106 / 108 66% 1 01.01.2027 Befürworten
Pablo Fernández Leiria Aktiv 110 / 110 67% 1 01.01.2027 Befürworten
Caio Vidal Deportivo Pereira Aktiv 128 / 129 63% 1 01.01.2027 Befürworten
Enrique Lofolomo Zulte Waregem Aktiv 111 / 102 40% 1 28.12.2026 -
Tyrhys Dolan Espanyol Aktiv 124 / 147 40% 4 27.12.2026 -
Maksim Kireev KV Mechelen Aktiv 108 / 135 40% 2 27.12.2026 -
Mardochée Nzita Charleroi Aktiv 124 / 106 40% 2 26.12.2026 -
Tibe De Vlieger KAA Gent Aktiv 108 / 117 40% 1 26.12.2026 -
Ilias Sebaoui Sint-Truiden Aktiv 117 / 117 40% 3 23.12.2026 -
Taiga Hata Sint-Truiden Aktiv 125 / 113 40% 2 23.12.2026 -
Bobby Clark Derby County Aktiv 108 / 124 40% 1 19.12.2026 -
Juan Pablo Gallego Fehervar Aktiv 112 / 123 40% 1 13.12.2026 -
Tyrese Campbell Sheffield United Aktiv 143 / 128 40% 1 12.12.2026 -
Tristan Degreef Anderlecht Aktiv 126 / 126 40% 6 11.12.2026 -
William Balikwisha OH Leuven Aktiv 102 / 127 40% 2 11.12.2026 -
Marley Aké Zulte Waregem Aktiv 120 / 129 40% 2 10.12.2026 -
Fredrik Hammar KV Mechelen Aktiv 117 / 102 40% 1 10.12.2026 -
Eddie Nketiah Crystal Palace Aktiv 143 / 137 40% 2 09.12.2026 -
Oswin Appollis Orlando Pirates Aktiv 111 / 101 40% 1 09.12.2026 -
Tyler Goodrham Oxford United Aktiv 133 / 124 40% 1 06.12.2026 -
Mitchel Bakker Modena Aktiv 129 / 141 40% 4 04.12.2026 -
Daniel Kyerewaa Reading Aktiv 128 / 122 40% 1 04.12.2026 -
Elliot Anderson Manchester City Aktiv 142 / 157 40% 1 02.12.2026 -
Kyriani Sabbe Club Brugge Aktiv 122 / 111 40% 2 30.11.2026 -
Yassine Khalifi Charleroi Aktiv 108 / 116 40% 1 27.11.2026 -
Fiete Arp OB Aktiv 140 / 133 40% 1 25.11.2026 -
Thomas Claes Zulte Waregem Aktiv 105 / 118 40% 1 25.11.2026 -
Jorg Schreuders Groningen Aktiv 120 / 137 40% 1 24.11.2026 -
Malick Mbaye Zulte Waregem Aktiv 117 / 102 40% 3 15.11.2026 -
Thibaud Verlinden OH Leuven Aktiv 124 / 127 40% 1 14.11.2026 -
Abdelkahar Kadri KAA Gent Aktiv 112 / 123 40% 1 14.11.2026 -
Dylan Ourega Westerlo Aktiv 116 / 129 40% 1 09.11.2026 -
Jadon Sancho Manchester United Aktiv 162 / 135 40% 2 06.11.2026 -
Alex Luna Instituto Aktiv 136 / 132 40% 1 05.11.2026 -
Tommy St. Jago KV Mechelen Aktiv 123 / 113 40% 1 04.11.2026 -
Alejandro Piedrahita Deportivo Pereira Aktiv 114 / 137 40% 1 04.11.2026 -
Jens Petter Hauge Bodo/Glimt Aktiv 138 / 126 40% 1 03.11.2026 -
Adnane Abid Standard Liege Aktiv 121 / 117 40% 1 02.11.2026 -
Scott Twine Bristol City Aktiv 137 / 138 40% 1 02.11.2026 -
Nikolas Sattlberger Racing Genk Aktiv 107 / 136 40% 1 31.10.2026 -
Timothy Tielemans Mouscron Aktiv 111 / 113 40% 1 29.10.2026 -
Jan Virgili Club Brugge Aktiv 123 / 130 40% 2 27.10.2026 -
Sylvester Jasper Standard Liege Aktiv 103 / 126 40% 1 26.10.2026 -
Mohamed-Ali Cho Hull City Aktiv 118 / 143 40% 1 21.10.2026 -
Jason Knight Bristol City Aktiv 126 / 136 40% 1 21.10.2026 -
Dante Rigo Standard Liege Aktiv 100 / 125 40% 1 20.10.2026 -
Łukasz Łakomy OH Leuven Aktiv 116 / 108 40% 1 18.10.2026 -
Emi Rodriguez Leon Aktiv 111 / 103 40% 1 18.10.2026 -
Martín Ojeda Orlando City Aktiv 158 / 111 40% 1 14.10.2026 -
Pedro Vite Pumas UNAM Aktiv 143 / 124 40% 1 14.10.2026 -
Talles Magno New York City Aktiv 115 / 125 40% 1 13.10.2026 -
Marcus Edwards Burnley Aktiv 150 / 140 40% 1 12.10.2026 -
Yaimar Medina Racing Genk Aktiv 112 / 109 40% 1 11.10.2026 -
Omar Campos Cruz Azul Aktiv 147 / 131 40% 1 10.10.2026 -
Antoine Colassin Charleroi Aktiv 110 / 110 40% 1 09.10.2026 -
Sieben Dewaele Waasland-Beveren Aktiv 100 / 104 40% 1 08.10.2026 -
Hugo Vetlesen Club Brugge Aktiv 125 / 134 40% 1 07.10.2026 -
Jearl Margaritha Waasland-Beveren Aktiv 91 / 101 40% 1 07.10.2026 -
Ibrahim Karamoko Standard Liege Aktiv 124 / 112 40% 1 06.10.2026 -
Matisse Samoise KAA Gent Aktiv 109 / 106 40% 1 05.10.2026 -
Djordje Mihailović Toronto FC Aktiv 146 / 149 40% 1 05.10.2026 -